createdAt,value
2023-11-29T00:11:16.360Z,3.6
2023-11-29T00:26:16.654Z,3.5
2023-11-29T00:41:16.351Z,3.4
2023-11-29T00:56:16.373Z,3.2
2023-11-29T01:11:16.278Z,3.1
2023-11-29T01:26:16.288Z,3.1
2023-11-29T01:41:16.319Z,3.1
2023-11-29T01:56:16.237Z,3.1
2023-11-29T02:11:17.068Z,3.1
2023-11-29T02:26:16.229Z,3.1
2023-11-29T02:41:16.315Z,3.2
2023-11-29T02:56:16.205Z,3
2023-11-29T03:11:16.268Z,2.9
2023-11-29T03:26:16.182Z,2.9
2023-11-29T03:41:16.242Z,2.9
2023-11-29T03:56:16.192Z,3
2023-11-29T04:11:16.245Z,2.9
2023-11-29T04:26:16.152Z,2.8
2023-11-29T04:41:16.210Z,2.7
2023-11-29T04:56:16.155Z,2.6
2023-11-29T05:11:16.214Z,2.6
2023-11-29T05:26:16.174Z,2.6
2023-11-29T05:41:16.151Z,2.7
2023-11-29T05:56:16.163Z,2.7
2023-11-29T06:11:18.207Z,2.5
2023-11-29T06:26:16.116Z,2.4
2023-11-29T06:41:16.157Z,2.4
2023-11-29T06:56:16.106Z,2.4
2023-11-29T07:11:16.101Z,2.6
2023-11-29T07:26:16.068Z,2.6
2023-11-29T07:41:16.032Z,2.8
2023-11-29T07:56:16.049Z,3.2
2023-11-29T08:11:16.037Z,3.2
2023-11-29T08:26:16.037Z,3.4
2023-11-29T08:41:16.033Z,3.5
2023-11-29T08:56:16.085Z,3.6
2023-11-29T09:11:16.058Z,3.8
2023-11-29T09:26:16.029Z,4.7
2023-11-29T09:41:16.018Z,5.8
2023-11-29T09:56:15.989Z,5.9
2023-11-29T10:11:16.016Z,5
2023-11-29T10:26:15.969Z,5.4
2023-11-29T10:41:16.153Z,6.5
2023-11-29T10:56:16.000Z,6.7
2023-11-29T11:11:15.977Z,7.6
2023-11-29T11:26:15.913Z,7.9
2023-11-29T11:41:15.942Z,7.7
2023-11-29T11:56:16.029Z,7.6
2023-11-29T12:11:15.911Z,8
2023-11-29T12:26:15.852Z,8.2
2023-11-29T12:41:15.859Z,8.5
2023-11-29T12:56:18.845Z,8.7
2023-11-29T13:11:15.767Z,9.1
2023-11-29T13:26:15.789Z,8.9
2023-11-29T13:41:15.794Z,8.6
2023-11-29T13:56:15.792Z,7.6
2023-11-29T14:11:15.745Z,7
2023-11-29T14:26:15.717Z,7.1
2023-11-29T14:41:15.756Z,7.1
2023-11-29T14:56:21.167Z,7
2023-11-29T15:11:15.716Z,6.7
2023-11-29T15:26:15.660Z,6.3
2023-11-29T15:41:15.638Z,5.8
2023-11-29T15:56:15.611Z,5.6
2023-11-29T16:11:15.731Z,5.4
2023-11-29T16:26:15.634Z,5.3
2023-11-29T16:41:15.691Z,5.2
2023-11-29T16:56:15.584Z,5
2023-11-29T17:11:15.587Z,4.9
2023-11-29T17:26:15.564Z,4.8
2023-11-29T17:41:15.638Z,4.7
2023-11-29T17:56:16.837Z,4.7
2023-11-29T18:11:15.577Z,4.6
2023-11-29T18:26:15.527Z,4.6
2023-11-29T18:41:15.545Z,4.5
2023-11-29T18:56:15.485Z,4.5
2023-11-29T19:11:15.530Z,4.5
2023-11-29T19:26:15.473Z,4.5
2023-11-29T19:41:15.587Z,4.5
2023-11-29T19:56:15.752Z,4.5
2023-11-29T20:11:15.450Z,4.6
2023-11-29T20:26:15.425Z,4.5
2023-11-29T20:41:15.453Z,4.6
2023-11-29T20:56:15.394Z,4.6
2023-11-29T21:11:15.433Z,4.7
2023-11-29T21:26:15.395Z,4.6
2023-11-29T21:41:15.391Z,4.7
2023-11-29T21:56:15.363Z,4.5
2023-11-29T22:11:15.363Z,4.6
2023-11-29T22:26:15.358Z,4.9
2023-11-29T22:41:15.425Z,4.8
2023-11-29T22:56:15.327Z,4.9
2023-11-29T23:11:15.335Z,4.8
2023-11-29T23:26:15.319Z,4.6
2023-11-29T23:41:15.297Z,4.6
2023-11-29T23:56:15.247Z,4.4
